createdAt,value
2019-03-31T00:01:08.129Z,69.33
2019-03-31T00:02:00.828Z,69.23
2019-03-31T00:02:59.825Z,69.43
2019-03-31T00:03:59.810Z,69.02
2019-03-31T00:04:59.780Z,69.47
2019-03-31T00:05:59.800Z,69.47
2019-03-31T00:06:59.798Z,69.47
2019-03-31T00:07:59.779Z,69.67
2019-03-31T00:08:59.768Z,69.67
2019-03-31T00:09:59.720Z,69.98
2019-03-31T00:11:00.783Z,69.78
2019-03-31T00:11:59.728Z,70.53
2019-03-31T00:12:59.700Z,70.32
2019-03-31T00:13:59.688Z,70.42
2019-03-31T00:14:59.667Z,70.32
2019-03-31T00:15:59.686Z,70.53
2019-03-31T00:16:59.681Z,70.73
2019-03-31T00:17:59.660Z,71.04
2019-03-31T00:18:59.650Z,71.04
2019-03-31T00:19:59.635Z,71.45
2019-03-31T00:20:59.618Z,71.04
2019-03-31T00:21:59.619Z,71.79
2019-03-31T00:22:59.611Z,71.28
2019-03-31T00:23:59.580Z,71.66
2019-03-31T00:24:59.557Z,71.69
2019-03-31T00:25:59.564Z,71.48
2019-03-31T00:26:59.602Z,71.66
2019-03-31T00:27:59.541Z,71.14
2019-03-31T00:28:59.516Z,70.63
2019-03-31T00:29:59.543Z,70.32
2019-03-31T00:30:59.504Z,70.32
2019-03-31T00:31:59.515Z,70.32
2019-03-31T00:32:59.479Z,70.63
2019-03-31T00:33:59.474Z,70.53
2019-03-31T00:34:59.446Z,70.63
2019-03-31T00:35:59.459Z,70.63
2019-03-31T00:36:59.473Z,70.63
2019-03-31T00:37:59.435Z,70.32
2019-03-31T00:38:59.411Z,70.84
2019-03-31T00:39:59.401Z,71.14
2019-03-31T00:40:59.406Z,70.94
2019-03-31T00:41:59.401Z,71.04
2019-03-31T00:42:59.400Z,71.04
2019-03-31T00:43:59.346Z,71.04
2019-03-31T00:44:59.350Z,71.04
2019-03-31T00:45:59.355Z,71.45
2019-03-31T00:47:02.045Z,71.76
2019-03-31T00:47:59.328Z,71.79
2019-03-31T00:48:59.316Z,71.48
2019-03-31T00:49:59.297Z,72.00
2019-03-31T00:50:59.283Z,72.31
2019-03-31T00:51:59.290Z,72.75
2019-03-31T00:52:59.281Z,72.75
2019-03-31T00:53:59.246Z,72.85
2019-03-31T00:54:59.253Z,73.27
2019-03-31T00:55:59.233Z,73.27
2019-03-31T00:56:59.253Z,73.16
2019-03-31T00:57:59.208Z,73.06
2019-03-31T00:58:59.211Z,73.27
2019-03-31T00:59:59.174Z,72.85
2019-03-31T01:00:59.183Z,73.68
2019-03-31T01:01:59.177Z,73.78
2019-03-31T01:02:59.132Z,73.61
2019-03-31T01:03:59.135Z,73.30
2019-03-31T01:04:59.136Z,73.19
2019-03-31T01:05:59.122Z,73.50
2019-03-31T01:06:59.143Z,73.71
2019-03-31T01:07:59.105Z,73.71
2019-03-31T01:08:59.084Z,74.12
2019-03-31T01:09:59.076Z,73.81
2019-03-31T01:10:59.064Z,74.22
2019-03-31T01:11:59.132Z,73.71
2019-03-31T01:12:59.071Z,73.61
2019-03-31T01:13:59.032Z,74.02
2019-03-31T01:14:59.022Z,73.61
2019-03-31T01:15:58.998Z,73.71
2019-03-31T01:16:59.024Z,73.61
2019-03-31T01:17:59.002Z,74.36
2019-03-31T01:18:58.967Z,74.26
2019-03-31T01:19:58.964Z,74.57
2019-03-31T01:20:58.932Z,74.67
2019-03-31T01:21:58.939Z,74.57
2019-03-31T01:22:58.936Z,75.08
2019-03-31T01:23:58.908Z,74.91
2019-03-31T01:24:58.898Z,75.32
2019-03-31T01:26:00.462Z,75.42
2019-03-31T01:26:58.888Z,75.12
2019-03-31T01:27:58.915Z,75.12
2019-03-31T01:28:58.866Z,75.22
2019-03-31T01:29:58.839Z,75.52
2019-03-31T01:30:58.839Z,75.63
2019-03-31T01:31:58.859Z,75.52
2019-03-31T01:32:58.843Z,75.63
2019-03-31T01:33:58.808Z,75.52
2019-03-31T01:34:58.790Z,75.52
2019-03-31T01:35:58.807Z,75.29
2019-03-31T01:36:58.769Z,75.08
2019-03-31T01:37:58.816Z,74.67
2019-03-31T01:38:58.758Z,74.57
2019-03-31T01:39:58.733Z,74.15
2019-03-31T01:40:58.728Z,74.26
2019-03-31T01:41:58.752Z,74.46
2019-03-31T01:42:58.730Z,74.57
2019-03-31T01:43:58.705Z,75.08
2019-03-31T01:44:58.706Z,74.98
2019-03-31T01:45:58.684Z,74.87
2019-03-31T01:46:58.655Z,74.87
2019-03-31T01:47:58.696Z,74.91
2019-03-31T01:48:58.646Z,75.01
2019-03-31T01:49:58.649Z,75.22
2019-03-31T01:50:58.644Z,75.22
2019-03-31T01:51:58.604Z,75.67
2019-03-31T01:52:58.618Z,76.18
2019-03-31T01:53:58.577Z,76.39
2019-03-31T01:54:58.579Z,76.39
2019-03-31T01:55:58.557Z,76.73
2019-03-31T01:56:58.561Z,76.93
2019-03-31T01:57:58.579Z,77.25
2019-03-31T01:58:58.576Z,77.86
2019-03-31T01:59:58.541Z,77.55
2019-03-31T02:00:58.507Z,77.66
2019-03-31T02:02:04.434Z,77.66
2019-03-31T02:02:59.501Z,77.55
2019-03-31T02:03:58.480Z,77.25
2019-03-31T02:04:58.466Z,77.21
2019-03-31T02:05:58.455Z,77.00
2019-03-31T02:06:58.436Z,76.70
2019-03-31T02:07:58.456Z,76.35
2019-03-31T02:08:58.428Z,76.35
2019-03-31T02:09:58.425Z,76.04
2019-03-31T02:10:58.415Z,76.04
2019-03-31T02:11:58.400Z,75.73
2019-03-31T02:12:58.400Z,75.84
2019-03-31T02:13:58.357Z,75.52
2019-03-31T02:14:58.360Z,75.52
2019-03-31T02:15:58.341Z,75.63
2019-03-31T02:16:58.328Z,75.39
2019-03-31T02:17:58.362Z,75.18
2019-03-31T02:18:58.309Z,74.98
2019-03-31T02:19:58.311Z,74.98
2019-03-31T02:20:58.302Z,74.77
2019-03-31T02:21:58.274Z,74.87
2019-03-31T02:22:58.283Z,75.08
2019-03-31T02:23:58.264Z,74.98
2019-03-31T02:24:58.246Z,74.77
2019-03-31T02:25:58.222Z,75.01
2019-03-31T02:26:58.229Z,74.98
2019-03-31T02:27:58.232Z,74.87
2019-03-31T02:28:58.208Z,74.87
2019-03-31T02:29:58.203Z,74.57
2019-03-31T02:30:58.179Z,74.67
2019-03-31T02:31:58.194Z,74.77
2019-03-31T02:32:58.171Z,74.57
2019-03-31T02:33:58.145Z,74.46
2019-03-31T02:34:58.155Z,74.36
2019-03-31T02:35:58.143Z,74.57
2019-03-31T02:36:58.117Z,74.98
2019-03-31T02:37:58.135Z,74.87
2019-03-31T02:38:58.090Z,74.91
2019-03-31T02:39:58.084Z,75.12
2019-03-31T02:40:58.081Z,74.91
2019-03-31T02:41:58.054Z,74.77
2019-03-31T02:42:58.092Z,75.18
2019-03-31T02:43:58.042Z,75.08
2019-03-31T02:44:58.037Z,74.77
2019-03-31T02:45:58.014Z,74.77
2019-03-31T02:46:58.004Z,74.77
2019-03-31T02:47:58.025Z,74.77
2019-03-31T02:48:58.014Z,74.67
2019-03-31T02:49:57.964Z,74.57
2019-03-31T02:50:57.972Z,74.67
2019-03-31T02:51:57.974Z,74.33
2019-03-31T02:52:57.931Z,74.33
2019-03-31T02:53:57.962Z,74.36
2019-03-31T02:54:57.924Z,74.15
2019-03-31T02:55:57.930Z,74.36
2019-03-31T02:56:57.895Z,74.57
2019-03-31T02:57:57.894Z,74.67
2019-03-31T02:58:57.904Z,74.77
2019-03-31T02:59:57.848Z,75.22
2019-03-31T03:00:57.835Z,75.32
2019-03-31T03:01:57.836Z,75.63
2019-03-31T03:02:57.854Z,75.63
2019-03-31T03:03:57.834Z,75.77
2019-03-31T03:04:57.823Z,76.07
2019-03-31T03:05:57.856Z,76.49
2019-03-31T03:06:57.793Z,77.11
2019-03-31T03:07:57.781Z,77.04
2019-03-31T03:08:57.794Z,76.83
2019-03-31T03:09:57.754Z,77.04
2019-03-31T03:10:57.745Z,77.35
2019-03-31T03:11:57.720Z,77.66
2019-03-31T03:12:57.729Z,77.86
2019-03-31T03:13:57.744Z,77.97
2019-03-31T03:14:57.689Z,78.07
2019-03-31T03:15:57.700Z,78.21
2019-03-31T03:16:57.703Z,77.97
2019-03-31T03:17:57.838Z,77.86
2019-03-31T03:18:57.697Z,77.66
2019-03-31T03:19:57.666Z,78.07
2019-03-31T03:20:57.636Z,78.07
2019-03-31T03:21:57.649Z,78.07
2019-03-31T03:22:57.619Z,78.28
2019-03-31T03:23:57.694Z,78.07
2019-03-31T03:24:57.590Z,78.28
2019-03-31T03:25:57.575Z,77.86
2019-03-31T03:26:57.581Z,77.97
2019-03-31T03:27:57.584Z,77.45
2019-03-31T03:28:57.562Z,77.66
2019-03-31T03:29:57.538Z,78.00
2019-03-31T03:30:57.737Z,77.90
2019-03-31T03:31:57.523Z,78.21
2019-03-31T03:33:15.133Z,78.62
2019-03-31T03:33:58.549Z,79.07
2019-03-31T03:34:57.486Z,79.58
2019-03-31T03:35:57.474Z,79.79
2019-03-31T03:36:57.472Z,80.10
2019-03-31T03:37:57.453Z,80.14
2019-03-31T03:38:57.457Z,80.04
2019-03-31T03:39:57.435Z,80.24
2019-03-31T03:40:57.412Z,80.34
2019-03-31T03:41:57.386Z,80.76
2019-03-31T03:42:57.396Z,81.17
2019-03-31T03:44:02.107Z,81.17
2019-03-31T03:44:58.383Z,81.17
2019-03-31T03:45:57.352Z,81.17
2019-03-31T03:46:57.362Z,81.21
2019-03-31T03:47:57.349Z,81.51
2019-03-31T03:48:57.350Z,81.72
2019-03-31T03:49:57.352Z,81.93
2019-03-31T03:50:57.314Z,82.65
2019-03-31T03:51:57.282Z,81.93
2019-03-31T03:52:57.281Z,81.62
2019-03-31T03:53:57.282Z,81.51
2019-03-31T03:54:57.281Z,81.72
2019-03-31T03:55:57.243Z,81.82
2019-03-31T03:56:57.232Z,82.45
2019-03-31T03:57:57.238Z,82.03
2019-03-31T03:58:57.217Z,82.38
2019-03-31T03:59:57.240Z,82.69
2019-03-31T04:00:57.206Z,82.55
2019-03-31T04:01:57.193Z,82.48
2019-03-31T04:02:57.179Z,82.38
2019-03-31T04:03:57.168Z,82.38
2019-03-31T04:04:57.173Z,82.75
2019-03-31T04:05:57.132Z,82.75
2019-03-31T04:06:57.148Z,82.55
2019-03-31T04:07:57.125Z,82.59
2019-03-31T04:08:57.118Z,82.59
2019-03-31T04:09:57.138Z,82.69
2019-03-31T04:10:57.119Z,83.00
2019-03-31T04:11:57.080Z,83.10
2019-03-31T04:12:57.074Z,83.00
2019-03-31T04:13:57.051Z,83.20
2019-03-31T04:14:57.084Z,83.00
2019-03-31T04:15:57.024Z,83.20
2019-03-31T04:16:57.047Z,83.34
2019-03-31T04:17:57.012Z,83.65
2019-03-31T04:18:57.026Z,83.65
2019-03-31T04:19:57.030Z,83.97
2019-03-31T04:20:56.975Z,84.13
2019-03-31T04:21:56.973Z,83.51
2019-03-31T04:22:56.959Z,83.41
2019-03-31T04:23:56.969Z,83.20
2019-03-31T04:24:56.965Z,83.20
2019-03-31T04:25:56.929Z,83.31
2019-03-31T04:26:56.915Z,83.20
2019-03-31T04:27:56.935Z,83.62
2019-03-31T04:28:56.875Z,83.41
2019-03-31T04:29:56.909Z,83.20
2019-03-31T04:30:56.865Z,83.00
2019-03-31T04:31:56.876Z,83.51
2019-03-31T04:32:56.845Z,83.00
2019-03-31T04:33:56.853Z,83.04
2019-03-31T04:34:56.859Z,83.14
2019-03-31T04:35:56.824Z,83.25
2019-03-31T04:36:56.808Z,83.34
2019-03-31T04:37:56.785Z,83.34
2019-03-31T04:39:00.079Z,83.55
2019-03-31T04:39:56.795Z,83.97
2019-03-31T04:40:56.790Z,84.17
2019-03-31T04:41:56.767Z,84.07
2019-03-31T04:42:56.731Z,84.28
2019-03-31T04:43:56.721Z,84.69
2019-03-31T04:44:56.761Z,83.65
2019-03-31T04:45:56.706Z,83.34
2019-03-31T04:46:56.685Z,83.97
2019-03-31T04:47:56.722Z,84.28
2019-03-31T04:48:56.679Z,84.48
2019-03-31T04:49:56.666Z,84.48
2019-03-31T04:50:56.660Z,84.89
2019-03-31T04:51:56.636Z,85.00
2019-03-31T04:52:56.687Z,84.59
2019-03-31T04:53:56.626Z,84.59
2019-03-31T04:54:56.641Z,84.79
2019-03-31T04:55:56.619Z,83.90
2019-03-31T04:56:56.596Z,84.11
2019-03-31T04:57:56.595Z,84.42
2019-03-31T04:58:56.610Z,84.73
2019-03-31T04:59:56.557Z,84.73
2019-03-31T05:00:56.564Z,84.73
2019-03-31T05:01:56.541Z,85.14
2019-03-31T05:02:56.580Z,85.04
2019-03-31T05:04:04.431Z,85.14
2019-03-31T05:04:57.519Z,85.35
2019-03-31T05:05:56.560Z,85.55
2019-03-31T05:06:56.497Z,85.70
2019-03-31T05:07:56.511Z,86.07
2019-03-31T05:08:56.505Z,86.18
2019-03-31T05:09:56.452Z,86.49
2019-03-31T05:10:56.442Z,86.38
2019-03-31T05:11:56.440Z,86.18
2019-03-31T05:12:56.452Z,85.66
2019-03-31T05:13:56.451Z,85.66
2019-03-31T05:14:56.396Z,85.66
2019-03-31T05:15:56.405Z,85.45
2019-03-31T05:16:56.382Z,85.31
2019-03-31T05:17:56.369Z,85.21
2019-03-31T05:18:56.392Z,85.21
2019-03-31T05:19:56.345Z,85.21
2019-03-31T05:20:56.328Z,85.00
2019-03-31T05:21:56.327Z,85.21
2019-03-31T05:22:56.298Z,85.10
2019-03-31T05:23:56.318Z,84.79
2019-03-31T05:24:56.279Z,84.48
2019-03-31T05:25:56.292Z,84.48
2019-03-31T05:26:56.276Z,84.69
2019-03-31T05:27:56.263Z,84.38
2019-03-31T05:28:56.280Z,84.34
2019-03-31T05:29:56.232Z,84.65
2019-03-31T05:30:56.222Z,84.44
2019-03-31T05:31:56.218Z,84.34
2019-03-31T05:32:56.188Z,84.34
2019-03-31T05:33:56.213Z,84.23
2019-03-31T05:34:56.191Z,83.93
2019-03-31T05:35:56.182Z,83.62
2019-03-31T05:36:56.158Z,83.31
2019-03-31T05:37:56.184Z,83.10
2019-03-31T05:38:56.158Z,82.69
2019-03-31T05:39:56.133Z,82.65
2019-03-31T05:40:56.178Z,82.75
2019-03-31T05:41:56.127Z,82.96
2019-03-31T05:42:56.102Z,83.03
2019-03-31T05:44:05.674Z,82.71
2019-03-31T05:44:57.089Z,81.54
2019-03-31T05:45:56.072Z,81.34
2019-03-31T05:46:56.074Z,80.96
2019-03-31T05:47:56.030Z,80.76
2019-03-31T05:48:56.056Z,80.86
2019-03-31T05:49:56.045Z,81.03
2019-03-31T05:50:56.018Z,81.23
2019-03-31T05:51:56.007Z,80.47
2019-03-31T05:52:55.984Z,79.55
2019-03-31T05:53:56.006Z,79.34
2019-03-31T05:54:55.959Z,79.55
2019-03-31T05:55:55.950Z,79.55
2019-03-31T05:56:55.949Z,79.82
2019-03-31T05:57:55.950Z,79.16
2019-03-31T05:58:55.958Z,77.55
2019-03-31T05:59:55.906Z,76.62
2019-03-31T06:00:55.893Z,76.18
2019-03-31T06:01:55.898Z,75.46
2019-03-31T06:02:55.864Z,75.49
2019-03-31T06:03:55.883Z,73.68
2019-03-31T06:04:55.866Z,71.35
2019-03-31T06:05:55.855Z,70.26
2019-03-31T06:06:55.921Z,69.78
2019-03-31T06:07:55.847Z,70.73
2019-03-31T06:08:55.866Z,69.54
2019-03-31T06:09:55.800Z,71.72
2019-03-31T06:10:55.853Z,71.31
2019-03-31T06:11:55.797Z,71.72
2019-03-31T06:12:55.795Z,72.00
2019-03-31T06:13:55.831Z,70.19
2019-03-31T06:14:55.764Z,70.32
2019-03-31T06:15:55.766Z,71.11
2019-03-31T06:16:55.716Z,70.09
2019-03-31T06:17:55.721Z,68.16
2019-03-31T06:18:55.735Z,66.36
2019-03-31T06:19:55.685Z,63.85
2019-03-31T06:20:55.702Z,62.26
2019-03-31T06:21:55.675Z,61.38
2019-03-31T06:22:55.666Z,60.44
2019-03-31T06:23:55.675Z,58.89
2019-03-31T06:24:55.637Z,59.55
2019-03-31T06:25:55.662Z,60.39
2019-03-31T06:26:55.643Z,59.48
2019-03-31T06:27:55.631Z,58.97
2019-03-31T06:28:55.616Z,58.53
2019-03-31T06:29:55.582Z,58.03
2019-03-31T06:30:55.578Z,58.23
2019-03-31T06:31:55.562Z,59.83
2019-03-31T06:32:55.713Z,59.77
2019-03-31T06:33:55.560Z,58.60
2019-03-31T06:34:55.547Z,57.48
2019-03-31T06:35:55.549Z,57.84
2019-03-31T06:36:55.526Z,55.68
2019-03-31T06:37:55.500Z,54.84
2019-03-31T06:38:55.531Z,54.00
2019-03-31T06:39:55.472Z,55.10
2019-03-31T06:40:55.469Z,52.99
2019-03-31T06:41:55.469Z,53.78
2019-03-31T06:42:55.448Z,53.14
2019-03-31T06:43:55.464Z,51.20
2019-03-31T06:44:55.455Z,51.57
2019-03-31T06:45:55.431Z,50.67
2019-03-31T06:46:55.400Z,51.48
2019-03-31T06:47:55.397Z,50.54
2019-03-31T06:48:55.422Z,51.76
2019-03-31T06:49:55.360Z,49.33
2019-03-31T06:50:55.368Z,50.37
2019-03-31T06:51:55.346Z,51.86
2019-03-31T06:52:55.341Z,50.34
2019-03-31T06:53:55.336Z,51.23
2019-03-31T06:54:55.374Z,49.53
2019-03-31T06:55:55.296Z,51.50
2019-03-31T06:56:55.290Z,50.87
2019-03-31T06:57:55.301Z,48.71
2019-03-31T06:58:55.262Z,49.59
2019-03-31T06:59:55.302Z,48.46
2019-03-31T07:00:55.268Z,48.54
2019-03-31T07:01:55.259Z,50.37
2019-03-31T07:02:55.236Z,47.45
2019-03-31T07:03:55.244Z,47.13
2019-03-31T07:05:00.878Z,45.98
2019-03-31T07:05:56.211Z,44.57
2019-03-31T07:06:55.188Z,44.75
2019-03-31T07:07:55.208Z,44.35
2019-03-31T07:08:55.188Z,44.65
2019-03-31T07:09:55.180Z,43.74
2019-03-31T07:10:55.159Z,44.75
2019-03-31T07:11:55.172Z,44.15
2019-03-31T07:12:55.154Z,45.86
2019-03-31T07:13:55.144Z,43.12
2019-03-31T07:14:55.157Z,43.72
2019-03-31T07:15:55.122Z,43.14
2019-03-31T07:16:55.092Z,43.92
2019-03-31T07:17:55.086Z,43.70
2019-03-31T07:18:55.095Z,43.42
2019-03-31T07:19:55.093Z,43.52
2019-03-31T07:20:55.062Z,43.30
2019-03-31T07:21:55.062Z,43.58
2019-03-31T07:22:55.054Z,43.56
2019-03-31T07:23:55.044Z,41.41
2019-03-31T07:24:55.053Z,41.69
2019-03-31T07:25:55.038Z,39.29
2019-03-31T07:26:55.042Z,42.27
2019-03-31T07:27:54.990Z,39.33
2019-03-31T07:28:54.970Z,38.73
2019-03-31T07:29:55.042Z,41.83
2019-03-31T07:30:54.984Z,42.63
2019-03-31T07:31:54.966Z,42.11
2019-03-31T07:32:54.939Z,39.07
2019-03-31T07:33:54.943Z,38.85
2019-03-31T07:34:54.943Z,39.22
2019-03-31T07:35:54.947Z,36.63
2019-03-31T07:36:54.892Z,37.32
2019-03-31T07:37:54.890Z,38.82
2019-03-31T07:38:54.881Z,39.42
2019-03-31T07:39:55.080Z,36.71
2019-03-31T07:40:54.872Z,36.13
2019-03-31T07:41:55.181Z,35.91
2019-03-31T07:42:54.879Z,35.53
2019-03-31T07:43:54.820Z,38.00
2019-03-31T07:44:54.858Z,35.21
2019-03-31T07:45:55.933Z,37.23
2019-03-31T07:46:54.805Z,38.52
2019-03-31T07:47:54.795Z,36.04
2019-03-31T07:48:54.795Z,35.66
2019-03-31T07:49:54.802Z,38.89
2019-03-31T07:50:54.756Z,37.29
2019-03-31T07:51:54.739Z,37.70
2019-03-31T07:52:54.754Z,38.49
2019-03-31T07:53:54.751Z,38.61
2019-03-31T07:54:54.747Z,40.23
2019-03-31T07:55:54.751Z,41.02
2019-03-31T07:56:54.716Z,40.83
2019-03-31T07:57:54.765Z,39.61
2019-03-31T07:58:54.681Z,39.61
2019-03-31T07:59:56.567Z,40.31
2019-03-31T08:00:54.688Z,39.55
2019-03-31T08:01:54.662Z,40.65
2019-03-31T08:02:54.626Z,40.25
2019-03-31T08:03:54.639Z,41.77
2019-03-31T08:04:54.647Z,41.15
2019-03-31T08:05:54.605Z,41.05
2019-03-31T08:06:54.596Z,41.96
2019-03-31T08:07:54.582Z,41.93
2019-03-31T08:08:54.590Z,40.80
2019-03-31T08:09:54.622Z,40.33
2019-03-31T08:10:54.565Z,41.61
2019-03-31T08:11:54.554Z,40.08
2019-03-31T08:12:54.552Z,39.56
2019-03-31T08:13:55.413Z,38.76
2019-03-31T08:14:54.543Z,37.94
2019-03-31T08:15:54.557Z,38.72
2019-03-31T08:16:54.502Z,37.98
2019-03-31T08:17:54.518Z,39.00
2019-03-31T08:18:54.548Z,39.09
2019-03-31T08:19:54.476Z,39.46
2019-03-31T08:20:54.491Z,38.96
2019-03-31T08:21:54.480Z,37.74
2019-03-31T08:22:57.074Z,38.12
2019-03-31T08:23:54.445Z,37.32
2019-03-31T08:24:54.414Z,37.72
2019-03-31T08:25:54.463Z,38.98
2019-03-31T08:26:54.403Z,39.50
2019-03-31T08:27:54.400Z,40.00
2019-03-31T08:28:54.410Z,38.98
2019-03-31T08:30:00.434Z,38.96
2019-03-31T08:30:55.405Z,38.02
2019-03-31T08:31:54.343Z,38.94
2019-03-31T08:32:54.342Z,38.44
2019-03-31T08:33:54.350Z,38.14
2019-03-31T08:34:54.332Z,40.45
2019-03-31T08:35:54.349Z,39.20
2019-03-31T08:36:54.283Z,40.30
2019-03-31T08:37:54.333Z,39.56
2019-03-31T08:38:54.282Z,40.44
2019-03-31T08:39:54.267Z,40.72
2019-03-31T08:40:54.283Z,37.40
2019-03-31T08:41:54.263Z,36.97
2019-03-31T08:42:54.270Z,37.35
2019-03-31T08:43:54.214Z,36.77
2019-03-31T08:44:54.213Z,37.72
2019-03-31T08:45:54.258Z,39.32
2019-03-31T08:46:54.276Z,38.59
2019-03-31T08:47:54.206Z,38.46
2019-03-31T08:48:54.241Z,37.38
2019-03-31T08:49:54.201Z,37.87
2019-03-31T08:50:54.191Z,37.21
2019-03-31T08:51:54.158Z,38.09
2019-03-31T08:52:54.155Z,38.10
2019-03-31T08:53:54.161Z,37.17
2019-03-31T08:54:54.165Z,38.09
2019-03-31T08:55:54.146Z,36.39
2019-03-31T08:56:54.109Z,36.61
2019-03-31T08:57:54.100Z,38.54
2019-03-31T08:58:54.088Z,38.24
2019-03-31T08:59:54.094Z,36.84
2019-03-31T09:00:54.115Z,37.52
2019-03-31T09:01:54.085Z,37.30
2019-03-31T09:02:54.045Z,37.49
2019-03-31T09:03:54.052Z,35.83
2019-03-31T09:04:54.038Z,36.74
2019-03-31T09:06:01.726Z,37.02
2019-03-31T09:06:55.013Z,37.51
2019-03-31T09:07:54.041Z,35.69
2019-03-31T09:08:54.071Z,34.89
2019-03-31T09:09:53.975Z,36.31
2019-03-31T09:10:53.997Z,36.79
2019-03-31T09:11:53.972Z,36.16
2019-03-31T09:12:53.995Z,36.34
2019-03-31T09:13:53.954Z,35.26
2019-03-31T09:14:53.954Z,35.77
2019-03-31T09:15:53.947Z,36.95
2019-03-31T09:16:53.926Z,34.16
2019-03-31T09:17:54.314Z,33.98
2019-03-31T09:18:53.925Z,34.50
2019-03-31T09:19:53.874Z,34.08
2019-03-31T09:20:53.942Z,35.10
2019-03-31T09:21:53.880Z,35.11
2019-03-31T09:22:53.850Z,36.47
2019-03-31T09:23:53.846Z,33.78
2019-03-31T09:24:53.831Z,34.80
2019-03-31T09:25:53.847Z,35.66
2019-03-31T09:26:53.866Z,33.88
2019-03-31T09:27:53.803Z,36.41
2019-03-31T09:28:53.795Z,36.39
2019-03-31T09:29:53.799Z,35.39
2019-03-31T09:30:53.796Z,35.77
2019-03-31T09:31:53.807Z,34.84
2019-03-31T09:32:53.762Z,34.73
2019-03-31T09:33:53.738Z,34.61
2019-03-31T09:34:54.472Z,34.41
2019-03-31T09:35:53.754Z,35.67
2019-03-31T09:36:53.751Z,34.18
2019-03-31T09:37:53.706Z,33.48
2019-03-31T09:38:53.684Z,32.90
2019-03-31T09:39:53.677Z,35.29
2019-03-31T09:40:53.682Z,35.21
2019-03-31T09:41:53.688Z,34.89
2019-03-31T09:42:53.661Z,33.62
2019-03-31T09:43:53.662Z,34.58
2019-03-31T09:44:53.635Z,35.66
2019-03-31T09:45:53.646Z,35.96
2019-03-31T09:46:53.650Z,35.05
2019-03-31T09:47:53.629Z,36.00
2019-03-31T09:48:53.594Z,33.62
2019-03-31T09:49:53.592Z,34.55
2019-03-31T09:50:56.475Z,36.32
2019-03-31T09:51:53.603Z,37.93
2019-03-31T09:52:53.589Z,36.80
2019-03-31T09:53:53.551Z,34.91
2019-03-31T09:54:53.564Z,34.83
2019-03-31T09:55:53.529Z,35.11
2019-03-31T09:56:53.563Z,34.84
2019-03-31T09:57:53.504Z,35.92
2019-03-31T09:58:53.506Z,34.73
2019-03-31T09:59:53.471Z,34.71
2019-03-31T10:00:53.504Z,34.68
2019-03-31T10:01:53.509Z,35.01
2019-03-31T10:02:53.465Z,36.47
2019-03-31T10:03:53.476Z,36.27
2019-03-31T10:04:53.450Z,36.67
2019-03-31T10:05:53.419Z,36.37
2019-03-31T10:06:53.473Z,35.26
2019-03-31T10:07:53.435Z,35.34
2019-03-31T10:08:53.418Z,35.72
2019-03-31T10:09:53.390Z,35.34
2019-03-31T10:10:53.460Z,36.44
2019-03-31T10:11:53.393Z,35.14
2019-03-31T10:12:53.370Z,36.42
2019-03-31T10:13:53.352Z,37.48
2019-03-31T10:14:54.395Z,36.55
2019-03-31T10:15:53.351Z,33.87
2019-03-31T10:16:53.405Z,34.89
2019-03-31T10:17:53.304Z,36.21
2019-03-31T10:18:53.304Z,35.22
2019-03-31T10:19:53.297Z,35.86
2019-03-31T10:20:53.304Z,35.84
2019-03-31T10:21:53.313Z,35.75
2019-03-31T10:22:53.265Z,37.85
2019-03-31T10:23:53.287Z,36.07
2019-03-31T10:24:53.262Z,36.95
2019-03-31T10:25:53.255Z,37.30
2019-03-31T10:26:53.259Z,36.36
2019-03-31T10:27:53.235Z,33.97
2019-03-31T10:28:53.289Z,34.27
2019-03-31T10:29:53.245Z,35.66
2019-03-31T10:30:53.223Z,36.63
2019-03-31T10:31:53.185Z,35.24
2019-03-31T10:32:53.165Z,33.44
2019-03-31T10:33:53.206Z,35.32
2019-03-31T10:34:53.146Z,33.40
2019-03-31T10:35:53.111Z,36.16
2019-03-31T10:36:53.133Z,35.94
2019-03-31T10:37:53.149Z,37.00
2019-03-31T10:38:53.134Z,38.47
2019-03-31T10:39:53.092Z,35.61
2019-03-31T10:40:53.106Z,36.54
2019-03-31T10:41:53.093Z,36.16
2019-03-31T10:42:53.057Z,36.65
2019-03-31T10:43:53.054Z,37.53
2019-03-31T10:44:53.053Z,39.78
2019-03-31T10:45:53.021Z,36.82
2019-03-31T10:46:53.092Z,38.39
2019-03-31T10:47:53.014Z,36.19
2019-03-31T10:48:52.986Z,35.80
2019-03-31T10:49:52.978Z,36.08
2019-03-31T10:50:53.004Z,36.17
2019-03-31T10:51:53.024Z,34.56
2019-03-31T10:52:52.977Z,35.59
2019-03-31T10:53:52.939Z,36.54
2019-03-31T10:54:52.955Z,37.85
2019-03-31T10:55:52.925Z,37.25
2019-03-31T10:56:52.946Z,36.83
2019-03-31T10:57:52.934Z,37.99
2019-03-31T10:58:52.912Z,35.99
2019-03-31T10:59:52.862Z,36.10
2019-03-31T11:00:52.896Z,36.40
2019-03-31T11:01:52.862Z,35.34
2019-03-31T11:02:52.927Z,39.12
2019-03-31T11:03:52.846Z,37.73
2019-03-31T11:04:52.821Z,37.04
2019-03-31T11:05:52.825Z,37.53
2019-03-31T11:06:58.867Z,37.21
2019-03-31T11:07:53.852Z,37.83
2019-03-31T11:08:52.774Z,37.92
2019-03-31T11:09:52.791Z,36.80
2019-03-31T11:10:52.821Z,36.78
2019-03-31T11:11:52.809Z,36.45
2019-03-31T11:12:52.777Z,36.05
2019-03-31T11:13:52.719Z,35.83
2019-03-31T11:14:52.732Z,36.22
2019-03-31T11:15:52.731Z,36.13
2019-03-31T11:16:52.696Z,35.17
2019-03-31T11:17:52.714Z,38.71
2019-03-31T11:18:52.695Z,39.90
2019-03-31T11:19:52.667Z,36.40
2019-03-31T11:20:52.677Z,37.62
2019-03-31T11:21:52.666Z,36.00
2019-03-31T11:22:52.677Z,36.02
2019-03-31T11:23:52.639Z,36.35
2019-03-31T11:24:52.639Z,36.67
2019-03-31T11:25:52.633Z,39.44
2019-03-31T11:26:52.625Z,37.12
2019-03-31T11:27:52.639Z,36.12
2019-03-31T11:28:52.596Z,38.51
2019-03-31T11:29:52.583Z,35.91
2019-03-31T11:30:52.592Z,35.63
2019-03-31T11:31:52.568Z,35.94
2019-03-31T11:32:52.579Z,38.27
2019-03-31T11:33:52.539Z,37.05
2019-03-31T11:34:52.531Z,36.93
2019-03-31T11:35:52.498Z,36.52
2019-03-31T11:36:52.512Z,35.52
2019-03-31T11:37:52.527Z,38.21
2019-03-31T11:38:52.475Z,35.31
2019-03-31T11:39:52.483Z,36.02
2019-03-31T11:40:52.491Z,35.54
2019-03-31T11:41:52.445Z,36.64
2019-03-31T11:42:52.487Z,36.83
2019-03-31T11:43:52.434Z,36.72
2019-03-31T11:44:52.444Z,34.91
2019-03-31T11:45:52.396Z,34.89
2019-03-31T11:46:52.419Z,35.59
2019-03-31T11:47:52.443Z,35.80
2019-03-31T11:48:52.393Z,34.91
2019-03-31T11:49:52.365Z,35.26
2019-03-31T11:50:52.364Z,36.55
2019-03-31T11:51:52.412Z,37.27
2019-03-31T11:52:52.395Z,36.71
2019-03-31T11:53:52.682Z,37.51
2019-03-31T11:54:52.324Z,37.68
2019-03-31T11:55:52.295Z,36.49
2019-03-31T11:56:52.320Z,36.09
2019-03-31T11:57:52.305Z,37.32
2019-03-31T11:58:52.291Z,36.54
2019-03-31T11:59:52.312Z,38.68
2019-03-31T12:00:52.248Z,38.51
2019-03-31T12:01:52.304Z,39.77
2019-03-31T12:02:52.278Z,41.09
2019-03-31T12:03:52.234Z,41.71
2019-03-31T12:04:52.258Z,42.83
2019-03-31T12:05:52.194Z,43.80
2019-03-31T12:06:52.211Z,45.33
2019-03-31T12:07:52.205Z,47.26
2019-03-31T12:08:52.205Z,47.56
2019-03-31T12:09:52.158Z,47.86
2019-03-31T12:10:52.159Z,47.69
2019-03-31T12:11:52.139Z,49.24
2019-03-31T12:12:52.150Z,49.55
2019-03-31T12:13:52.129Z,49.42
2019-03-31T12:15:00.267Z,48.47
2019-03-31T12:15:53.089Z,47.52
2019-03-31T12:16:52.100Z,46.69
2019-03-31T12:17:52.142Z,47.62
2019-03-31T12:18:52.077Z,47.39
2019-03-31T12:19:52.088Z,46.72
2019-03-31T12:20:52.041Z,46.44
2019-03-31T12:21:52.052Z,47.04
2019-03-31T12:22:52.066Z,47.46
2019-03-31T12:23:52.044Z,48.90
2019-03-31T12:24:51.997Z,47.59
2019-03-31T12:25:52.019Z,47.89
2019-03-31T12:26:51.992Z,48.32
2019-03-31T12:27:52.038Z,48.92
2019-03-31T12:28:51.962Z,48.14
2019-03-31T12:29:51.927Z,48.66
2019-03-31T12:30:51.945Z,49.77
2019-03-31T12:31:51.943Z,50.20
2019-03-31T12:32:51.959Z,50.10
2019-03-31T12:33:51.900Z,50.22
2019-03-31T12:34:51.882Z,51.86
2019-03-31T12:35:51.915Z,52.14
2019-03-31T12:36:51.849Z,51.53
2019-03-31T12:37:51.892Z,50.60
2019-03-31T12:38:53.942Z,50.07
2019-03-31T12:39:51.827Z,50.25
2019-03-31T12:40:51.880Z,49.55
2019-03-31T12:41:51.806Z,49.02
2019-03-31T12:42:51.812Z,48.54
2019-03-31T12:43:51.885Z,49.59
2019-03-31T12:44:51.776Z,50.85
2019-03-31T12:45:51.755Z,51.56
2019-03-31T12:46:51.768Z,51.15
2019-03-31T12:47:51.813Z,52.01
2019-03-31T12:48:51.733Z,52.41
2019-03-31T12:49:51.761Z,52.49
2019-03-31T12:50:51.733Z,51.30
2019-03-31T12:51:54.935Z,52.14
2019-03-31T12:52:51.717Z,52.14